createdAt,value
2022-09-07T00:01:29.569Z,4.43
2022-09-07T00:03:57.376Z,4.10
2022-09-07T00:06:24.732Z,4.60
2022-09-07T00:08:51.350Z,4.53
2022-09-07T00:11:19.362Z,4.35
2022-09-07T00:13:47.392Z,4.05
2022-09-07T00:16:19.888Z,3.92
2022-09-07T00:18:46.797Z,4.20
2022-09-07T00:21:15.083Z,4.22
2022-09-07T00:23:41.777Z,4.38
2022-09-07T00:26:11.214Z,4.68
2022-09-07T00:28:38.449Z,4.45
2022-09-07T00:31:10.385Z,4.53
2022-09-07T00:33:37.141Z,4.13
2022-09-07T00:36:04.107Z,4.10
2022-09-07T00:38:30.901Z,4.40
2022-09-07T00:40:57.610Z,4.30
2022-09-07T00:43:42.005Z,4.20
2022-09-07T00:46:23.354Z,3.85
2022-09-07T00:48:58.000Z,4.85
2022-09-07T00:51:31.411Z,4.30
2022-09-07T00:54:01.971Z,4.30
2022-09-07T00:56:32.628Z,4.97
2022-09-07T00:58:59.562Z,4.43
2022-09-07T01:01:27.412Z,4.80
2022-09-07T01:03:55.748Z,4.10
2022-09-07T01:06:29.477Z,4.70
2022-09-07T01:09:00.492Z,4.32
2022-09-07T01:11:27.204Z,4.25
2022-09-07T01:13:54.307Z,4.50
2022-09-07T01:16:24.059Z,3.92
2022-09-07T01:19:15.427Z,4.20
2022-09-07T01:22:19.596Z,4.22
2022-09-07T01:24:58.305Z,4.05
2022-09-07T01:27:33.915Z,3.53
2022-09-07T01:30:26.881Z,4.10
2022-09-07T01:33:09.868Z,4.03
2022-09-07T01:35:52.125Z,4.70
2022-09-07T01:38:42.144Z,4.00
2022-09-07T01:41:08.800Z,4.43
2022-09-07T01:43:44.191Z,5.45
2022-09-07T01:46:37.021Z,5.80
2022-09-07T01:49:08.984Z,5.80
2022-09-07T01:51:40.121Z,5.47
2022-09-07T01:54:11.744Z,6.72
2022-09-07T01:56:42.159Z,5.68
2022-09-07T01:59:39.402Z,6.47
2022-09-07T02:02:13.836Z,5.80
2022-09-07T02:04:52.674Z,5.88
2022-09-07T02:07:24.954Z,5.90
2022-09-07T02:10:03.795Z,5.40
2022-09-07T02:12:38.324Z,5.20
2022-09-07T02:15:21.372Z,4.50
2022-09-07T02:18:01.708Z,4.55
2022-09-07T02:20:36.614Z,4.18
2022-09-07T02:23:07.205Z,4.00
2022-09-07T02:25:42.348Z,4.10
2022-09-07T02:28:10.937Z,4.32
2022-09-07T02:30:37.784Z,3.80
2022-09-07T02:33:04.801Z,4.20
2022-09-07T02:35:32.022Z,4.65
2022-09-07T02:38:02.168Z,4.20
2022-09-07T02:40:28.838Z,4.00
2022-09-07T02:42:55.809Z,4.28
2022-09-07T02:45:22.566Z,3.50
2022-09-07T02:48:21.455Z,3.63
2022-09-07T02:51:02.495Z,3.67
2022-09-07T02:53:56.646Z,3.67
2022-09-07T02:56:35.212Z,4.43
2022-09-07T02:59:11.896Z,4.72
2022-09-07T03:01:57.298Z,4.82
2022-09-07T03:04:48.640Z,5.25
2022-09-07T03:07:18.464Z,5.05
2022-09-07T03:09:48.491Z,4.47
2022-09-07T03:12:15.445Z,4.93
2022-09-07T03:14:43.566Z,5.10
2022-09-07T03:17:10.377Z,5.28
2022-09-07T03:19:37.055Z,4.90
2022-09-07T03:22:04.534Z,3.85
2022-09-07T03:24:31.207Z,4.53
2022-09-07T03:26:58.043Z,4.13
2022-09-07T03:29:24.746Z,4.05
2022-09-07T03:31:51.485Z,4.72
2022-09-07T03:34:18.103Z,4.72
2022-09-07T03:36:44.691Z,4.65
2022-09-07T03:39:12.335Z,3.85
2022-09-07T03:41:38.999Z,4.40
2022-09-07T03:44:06.972Z,4.93
2022-09-07T03:46:34.420Z,4.22
2022-09-07T03:49:01.189Z,4.20
2022-09-07T03:51:27.867Z,4.65
2022-09-07T03:53:54.802Z,4.68
2022-09-07T03:56:23.247Z,4.18
2022-09-07T04:01:19.609Z,4.60
2022-09-07T04:03:47.969Z,4.35
2022-09-07T04:06:15.493Z,4.10
2022-09-07T04:08:42.927Z,5.20
2022-09-07T04:11:12.835Z,5.20
2022-09-07T04:13:39.613Z,6.78
2022-09-07T04:16:20.150Z,6.57
2022-09-07T04:18:47.365Z,6.57
2022-09-07T04:21:14.063Z,6.43
2022-09-07T04:23:42.204Z,5.45
2022-09-07T04:26:32.383Z,6.72
2022-09-07T04:29:01.343Z,5.53
2022-09-07T04:31:28.114Z,6.82
2022-09-07T04:33:55.647Z,6.78
2022-09-07T04:36:24.807Z,5.47
2022-09-07T04:38:56.445Z,5.07
2022-09-07T04:41:23.596Z,5.53
2022-09-07T04:43:54.593Z,6.35
2022-09-07T04:46:24.375Z,4.45
2022-09-07T04:48:55.702Z,5.22
2022-09-07T04:51:23.765Z,5.78
2022-09-07T04:53:51.980Z,5.20
2022-09-07T04:56:19.669Z,5.25
2022-09-07T04:58:46.726Z,6.43
2022-09-07T05:01:16.283Z,5.65
2022-09-07T05:03:42.996Z,7.00
2022-09-07T05:06:10.372Z,7.15
2022-09-07T05:08:42.081Z,7.88
2022-09-07T05:11:10.200Z,7.93
2022-09-07T05:13:36.967Z,7.65
2022-09-07T05:16:12.155Z,6.75
2022-09-07T05:18:38.984Z,6.32
2022-09-07T05:21:17.637Z,6.70
2022-09-07T05:23:45.399Z,5.90
2022-09-07T05:26:12.632Z,5.20
2022-09-07T05:28:39.316Z,5.80
2022-09-07T05:31:19.477Z,5.93
2022-09-07T05:36:36.048Z,5.72
2022-09-07T05:39:03.547Z,5.28
2022-09-07T05:41:30.231Z,5.70
2022-09-07T05:46:43.832Z,7.82
2022-09-07T05:49:10.592Z,5.45
2022-09-07T05:51:37.433Z,5.47
2022-09-07T05:54:04.225Z,5.40
2022-09-07T05:56:34.375Z,5.88
2022-09-07T05:59:00.977Z,5.93
2022-09-07T06:01:27.820Z,5.63
2022-09-07T06:03:54.493Z,5.10
2022-09-07T06:06:21.184Z,5.40
2022-09-07T06:08:50.092Z,5.45
2022-09-07T06:11:18.904Z,5.72
2022-09-07T06:13:45.927Z,5.25
2022-09-07T06:16:14.004Z,4.88
2022-09-07T06:18:43.044Z,5.22
2022-09-07T06:21:12.105Z,4.45
2022-09-07T06:23:40.185Z,4.82
2022-09-07T06:26:07.849Z,5.32
2022-09-07T06:28:36.978Z,6.27
2022-09-07T06:31:06.575Z,5.90
2022-09-07T06:33:33.932Z,5.30
2022-09-07T06:36:06.126Z,4.95
2022-09-07T06:38:35.251Z,5.28
2022-09-07T06:43:50.051Z,5.45
2022-09-07T06:49:04.145Z,4.97
2022-09-07T06:51:32.160Z,4.55
2022-09-07T06:56:46.562Z,5.00
2022-09-07T06:59:13.241Z,5.30
2022-09-07T07:01:39.872Z,4.07
2022-09-07T07:04:06.655Z,4.45
2022-09-07T07:06:38.268Z,4.13
2022-09-07T07:09:07.585Z,4.72
2022-09-07T07:11:37.206Z,4.97
2022-09-07T07:14:04.312Z,5.03
2022-09-07T07:16:31.169Z,5.18
2022-09-07T07:18:58.114Z,5.20
2022-09-07T07:21:24.815Z,5.65
2022-09-07T07:23:52.950Z,4.25
2022-09-07T07:26:22.859Z,5.00
2022-09-07T07:29:06.838Z,6.07
2022-09-07T07:31:35.227Z,5.50
2022-09-07T07:34:03.837Z,5.63
2022-09-07T07:36:30.931Z,6.72
2022-09-07T07:44:18.630Z,5.03
2022-09-07T07:46:48.321Z,4.97
2022-09-07T07:49:14.946Z,5.20
2022-09-07T07:54:28.115Z,5.10
2022-09-07T07:56:54.744Z,5.82
2022-09-07T07:59:21.349Z,4.75
2022-09-07T08:01:47.968Z,4.80
2022-09-07T08:04:14.641Z,4.55
2022-09-07T08:06:44.017Z,5.20
2022-09-07T08:09:12.147Z,5.30
2022-09-07T08:11:40.282Z,4.30
2022-09-07T08:14:08.626Z,5.47
2022-09-07T08:19:03.114Z,4.20
2022-09-07T08:21:29.940Z,3.03
2022-09-07T08:23:56.502Z,3.72
2022-09-07T08:26:23.054Z,3.17
2022-09-07T08:28:49.624Z,3.03
2022-09-07T08:31:17.215Z,2.85
2022-09-07T08:33:44.791Z,3.22
2022-09-07T08:36:14.973Z,3.17
2022-09-07T08:38:41.767Z,3.58
2022-09-07T08:41:53.539Z,3.35
2022-09-07T08:44:28.695Z,2.95
2022-09-07T08:47:17.028Z,3.35
2022-09-07T08:50:06.462Z,2.95
2022-09-07T08:52:42.855Z,3.45
2022-09-07T08:55:16.946Z,3.25
2022-09-07T08:57:51.866Z,3.65
2022-09-07T09:00:19.297Z,2.53
2022-09-07T09:02:46.440Z,2.85
2022-09-07T09:06:10.045Z,3.97
2022-09-07T09:09:03.836Z,3.50
2022-09-07T09:11:45.652Z,2.70
2022-09-07T09:14:18.556Z,2.85
2022-09-07T09:16:50.116Z,2.60
2022-09-07T09:19:27.594Z,3.10
2022-09-07T09:22:21.559Z,2.73
2022-09-07T09:24:54.662Z,2.15
2022-09-07T09:27:21.225Z,3.22
2022-09-07T09:29:47.798Z,3.25
2022-09-07T09:32:35.929Z,2.85
2022-09-07T09:37:35.763Z,2.70
2022-09-07T09:40:03.342Z,2.78
2022-09-07T09:42:33.520Z,3.22
2022-09-07T09:45:10.334Z,2.95
2022-09-07T09:47:37.422Z,2.45
2022-09-07T09:53:29.932Z,2.22
2022-09-07T10:01:31.059Z,3.03
2022-09-07T10:04:00.502Z,3.20
2022-09-07T10:06:28.131Z,2.53
2022-09-07T10:09:02.078Z,3.15
2022-09-07T10:14:34.197Z,3.50
2022-09-07T10:17:01.980Z,3.10
2022-09-07T10:19:37.416Z,3.22
2022-09-07T10:22:19.073Z,3.08
2022-09-07T10:24:45.648Z,2.40
2022-09-07T10:27:33.225Z,2.40
2022-09-07T10:30:00.730Z,1.60
2022-09-07T10:32:35.343Z,3.47
2022-09-07T10:35:16.265Z,1.50
2022-09-07T10:37:54.112Z,1.70
2022-09-07T10:40:34.439Z,1.88
2022-09-07T10:43:25.522Z,2.67
2022-09-07T10:46:56.285Z,2.50
2022-09-07T10:49:15.824Z,2.35
2022-09-07T10:52:15.971Z,2.70
2022-09-07T10:55:00.519Z,2.92
2022-09-07T10:57:37.014Z,3.10
2022-09-07T11:00:13.472Z,2.97
2022-09-07T11:03:24.976Z,3.80
2022-09-07T11:05:39.660Z,3.90
2022-09-07T11:08:23.509Z,4.47
2022-09-07T11:11:02.188Z,4.03
2022-09-07T11:13:32.004Z,4.18
2022-09-07T11:16:00.751Z,5.00
2022-09-07T11:18:35.508Z,4.63
2022-09-07T11:21:03.681Z,4.63
2022-09-07T11:23:44.292Z,5.57
2022-09-07T11:26:19.416Z,4.88
2022-09-07T11:29:29.283Z,6.43
2022-09-07T11:31:40.649Z,4.38
2022-09-07T11:34:26.525Z,4.80
2022-09-07T11:37:30.369Z,6.40
2022-09-07T11:40:17.230Z,4.88
2022-09-07T11:42:50.947Z,4.75
2022-09-07T11:45:23.936Z,6.40
2022-09-07T11:48:04.683Z,6.80
2022-09-07T11:50:36.743Z,6.72
2022-09-07T11:53:07.934Z,8.18
2022-09-07T11:55:39.749Z,8.68
2022-09-07T11:58:30.785Z,9.90
2022-09-07T12:01:19.346Z,8.90
2022-09-07T12:04:04.730Z,7.50
2022-09-07T12:06:49.779Z,11.93
2022-09-07T12:09:27.166Z,11.10
2022-09-07T12:12:24.664Z,9.73
2022-09-07T12:14:54.411Z,8.98
2022-09-07T12:17:31.562Z,9.80
2022-09-07T12:20:15.380Z,10.77
2022-09-07T12:23:04.222Z,9.38
2022-09-07T12:25:32.308Z,12.38
2022-09-07T12:27:58.985Z,12.43
2022-09-07T12:30:25.756Z,11.55
2022-09-07T12:32:55.407Z,9.77
2022-09-07T12:35:28.561Z,8.15
2022-09-07T12:37:59.371Z,10.43
2022-09-07T12:40:33.252Z,8.00
2022-09-07T12:43:15.201Z,8.38
2022-09-07T12:45:42.317Z,11.20
2022-09-07T12:48:15.073Z,10.60
2022-09-07T12:50:53.795Z,9.20
2022-09-07T12:53:28.200Z,7.47
2022-09-07T12:56:43.187Z,8.18
2022-09-07T12:59:44.178Z,8.55
2022-09-07T13:02:32.789Z,5.88
2022-09-07T13:05:31.575Z,9.00
2022-09-07T13:08:13.332Z,9.20
2022-09-07T13:10:41.693Z,8.18
2022-09-07T13:15:50.432Z,12.63
2022-09-07T13:18:26.705Z,9.73
2022-09-07T13:21:31.951Z,10.07
2022-09-07T13:27:11.497Z,12.63
2022-09-07T13:29:41.209Z,12.55
2022-09-07T13:32:13.947Z,9.35
2022-09-07T13:34:46.231Z,12.50
2022-09-07T13:37:23.640Z,8.98
2022-09-07T13:39:54.794Z,12.05
2022-09-07T13:42:32.864Z,12.25
2022-09-07T13:45:06.410Z,13.30
2022-09-07T13:48:23.773Z,10.60
2022-09-07T13:51:24.319Z,10.40
2022-09-07T13:54:09.429Z,12.00
2022-09-07T13:56:48.615Z,8.85
2022-09-07T13:59:19.030Z,9.48
2022-09-07T14:01:47.366Z,6.03
2022-09-07T14:07:19.536Z,5.82
2022-09-07T14:09:48.887Z,5.38
2022-09-07T14:12:17.349Z,6.68
2022-09-07T14:14:43.951Z,7.47
2022-09-07T14:17:15.428Z,6.50
2022-09-07T14:19:48.095Z,5.82
2022-09-07T14:22:23.320Z,7.75
2022-09-07T14:24:53.281Z,7.18
2022-09-07T14:27:22.157Z,9.98
2022-09-07T14:29:48.908Z,8.25
2022-09-07T14:32:19.236Z,6.72
2022-09-07T14:34:46.288Z,7.13
2022-09-07T14:37:15.543Z,6.47
2022-09-07T14:39:49.449Z,6.63
2022-09-07T14:42:21.287Z,5.32
2022-09-07T14:44:48.362Z,4.97
2022-09-07T14:47:30.204Z,5.38
2022-09-07T14:49:58.250Z,4.45
2022-09-07T14:52:34.335Z,5.00
2022-09-07T14:55:07.919Z,4.68
2022-09-07T14:57:34.517Z,6.03
2022-09-07T15:00:36.400Z,6.20
2022-09-07T15:03:28.513Z,4.47
2022-09-07T15:06:02.979Z,5.88
2022-09-07T15:08:37.165Z,3.42
2022-09-07T15:13:59.188Z,3.83
2022-09-07T15:16:28.622Z,3.33
2022-09-07T15:19:02.395Z,3.55
2022-09-07T15:21:32.918Z,3.05
2022-09-07T15:24:00.876Z,2.10
2022-09-07T15:29:25.067Z,2.97
2022-09-07T15:32:01.716Z,3.10
2022-09-07T15:34:30.864Z,3.40
2022-09-07T15:37:00.296Z,2.35
2022-09-07T15:39:29.833Z,1.70
2022-09-07T15:41:57.792Z,1.70
2022-09-07T15:44:27.903Z,1.70
2022-09-07T15:49:46.043Z,1.60
2022-09-07T15:52:16.256Z,1.70
2022-09-07T15:54:43.493Z,1.88
2022-09-07T15:59:57.211Z,1.90
2022-09-07T16:05:10.701Z,1.80
2022-09-07T16:10:24.531Z,1.50
2022-09-07T16:15:47.886Z,2.15
2022-09-07T16:18:17.513Z,2.60
2022-09-07T16:20:45.077Z,2.05
2022-09-07T16:23:14.673Z,2.20
2022-09-07T16:25:43.369Z,1.80
2022-09-07T16:30:40.310Z,1.80
2022-09-07T16:33:07.044Z,2.10
2022-09-07T16:35:33.725Z,2.00
2022-09-07T16:40:46.894Z,1.92
2022-09-07T16:43:13.603Z,1.80
2022-09-07T16:48:26.754Z,1.90
2022-09-07T16:51:00.286Z,2.15
2022-09-07T16:53:29.355Z,2.30
2022-09-07T16:56:07.097Z,2.30
2022-09-07T16:58:36.279Z,2.03
2022-09-07T17:01:04.106Z,2.08
2022-09-07T17:03:30.765Z,2.00
2022-09-07T17:06:00.367Z,1.90
2022-09-07T17:08:27.497Z,2.00
2022-09-07T17:11:00.931Z,2.05
2022-09-07T17:13:27.637Z,1.73
2022-09-07T17:15:54.432Z,1.80
2022-09-07T17:19:28.848Z,2.08
2022-09-07T17:21:08.444Z,2.08
2022-09-07T17:23:45.651Z,1.92
2022-09-07T17:26:18.319Z,1.70
2022-09-07T17:28:46.245Z,1.70
2022-09-07T17:34:08.484Z,2.30
2022-09-07T17:36:35.385Z,1.90
2022-09-07T17:39:18.765Z,2.13
2022-09-07T17:41:52.734Z,2.03
2022-09-07T17:44:19.914Z,2.13
2022-09-07T17:46:46.740Z,2.30
2022-09-07T17:49:16.499Z,2.00
2022-09-07T17:51:43.781Z,2.10
2022-09-07T17:54:13.769Z,2.63
2022-09-07T17:56:41.872Z,2.58
2022-09-07T18:01:56.190Z,3.40
2022-09-07T18:04:23.713Z,4.63
2022-09-07T18:06:50.634Z,4.17
2022-09-07T18:09:19.783Z,3.92
2022-09-07T18:11:48.806Z,2.85
2022-09-07T18:14:16.280Z,3.00
2022-09-07T18:16:44.142Z,3.75
2022-09-07T18:19:11.863Z,3.30
2022-09-07T18:21:40.998Z,3.33
2022-09-07T18:24:13.535Z,3.40
2022-09-07T18:26:41.138Z,2.95
2022-09-07T18:29:26.036Z,2.90
2022-09-07T18:31:55.330Z,2.80
2022-09-07T18:34:22.198Z,2.83
2022-09-07T18:36:49.050Z,2.80
2022-09-07T18:39:15.705Z,3.30
2022-09-07T18:41:42.346Z,3.03
2022-09-07T18:46:55.874Z,3.35
2022-09-07T18:49:22.578Z,3.03
2022-09-07T18:54:35.834Z,3.08
2022-09-07T18:57:02.421Z,2.92
2022-09-07T18:59:29.804Z,2.78
2022-09-07T19:02:02.955Z,3.30
2022-09-07T19:07:17.755Z,2.75
2022-09-07T19:09:44.376Z,3.60
2022-09-07T19:12:11.001Z,3.15
2022-09-07T19:14:37.691Z,3.22
2022-09-07T19:17:04.573Z,3.15
2022-09-07T19:19:32.923Z,2.83
2022-09-07T19:22:01.558Z,2.70
2022-09-07T19:24:28.545Z,2.90
2022-09-07T19:27:00.066Z,2.70
2022-09-07T19:29:27.493Z,2.88
2022-09-07T19:32:07.536Z,2.88
2022-09-07T19:34:43.398Z,2.83
2022-09-07T19:37:11.932Z,2.90
2022-09-07T19:42:05.742Z,2.97
2022-09-07T19:44:32.589Z,3.33
2022-09-07T19:47:00.468Z,3.00
2022-09-07T19:49:27.744Z,2.95
2022-09-07T19:51:54.444Z,3.22
2022-09-07T19:54:21.031Z,3.00
2022-09-07T19:56:47.738Z,3.05
2022-09-07T19:59:14.629Z,3.10
2022-09-07T20:01:46.049Z,2.80
2022-09-07T20:04:19.000Z,3.15
2022-09-07T20:06:48.290Z,3.35
2022-09-07T20:09:14.902Z,3.22
2022-09-07T20:11:46.139Z,3.30
2022-09-07T20:14:13.801Z,3.22
2022-09-07T20:16:41.674Z,3.05
2022-09-07T20:19:08.713Z,2.80
2022-09-07T20:21:36.925Z,3.00
2022-09-07T20:24:04.462Z,3.00
2022-09-07T20:26:32.500Z,2.70
2022-09-07T20:29:23.325Z,2.80
2022-09-07T20:31:46.841Z,2.55
2022-09-07T20:34:13.721Z,2.22
2022-09-07T20:36:40.484Z,2.50
2022-09-07T20:39:07.438Z,2.50
2022-09-07T20:41:34.484Z,3.05
2022-09-07T20:44:02.773Z,2.72
2022-09-07T20:46:30.519Z,2.80
2022-09-07T20:48:57.264Z,2.58
2022-09-07T20:51:23.850Z,2.67
2022-09-07T20:53:50.556Z,3.63
2022-09-07T20:56:22.645Z,3.10
2022-09-07T20:58:54.099Z,3.70
2022-09-07T21:01:21.380Z,4.50
2022-09-07T21:03:55.173Z,5.65
2022-09-07T21:06:22.924Z,4.70
2022-09-07T21:08:50.201Z,3.58
2022-09-07T21:11:22.290Z,4.70
2022-09-07T21:14:07.339Z,5.15
2022-09-07T21:16:35.140Z,5.50
2022-09-07T21:19:03.383Z,5.30
2022-09-07T21:21:36.633Z,6.70
2022-09-07T21:24:05.879Z,6.70
2022-09-07T21:26:32.820Z,6.10
2022-09-07T21:29:05.021Z,6.03
2022-09-07T21:31:33.652Z,6.63
2022-09-07T21:34:01.937Z,7.22
2022-09-07T21:36:29.188Z,6.63
2022-09-07T21:38:56.020Z,5.30
2022-09-07T21:41:24.010Z,4.03
2022-09-07T21:43:55.491Z,3.50
2022-09-07T21:46:22.498Z,4.40
2022-09-07T21:48:49.215Z,4.60
2022-09-07T21:51:16.452Z,4.25
2022-09-07T21:53:43.623Z,3.67
2022-09-07T21:56:12.204Z,4.57
2022-09-07T21:58:39.965Z,4.57
2022-09-07T22:01:11.271Z,4.80
2022-09-07T22:03:39.519Z,4.07
2022-09-07T22:06:06.951Z,4.63
2022-09-07T22:08:38.202Z,4.28
2022-09-07T22:11:11.031Z,5.10
2022-09-07T22:13:37.797Z,5.93
2022-09-07T22:16:05.061Z,5.40
2022-09-07T22:18:31.943Z,6.38
2022-09-07T22:21:06.635Z,10.77
2022-09-07T22:23:35.344Z,8.35
2022-09-07T22:26:01.995Z,8.27
2022-09-07T22:28:29.992Z,7.50
2022-09-07T22:30:57.401Z,6.63
2022-09-07T22:33:24.116Z,5.90
2022-09-07T22:35:50.792Z,7.50
2022-09-07T22:38:17.324Z,8.65
2022-09-07T22:40:43.881Z,6.45
2022-09-07T22:43:10.435Z,7.25
2022-09-07T22:45:37.005Z,5.65
2022-09-07T22:48:03.724Z,7.45
2022-09-07T22:50:30.336Z,7.95
2022-09-07T22:52:56.915Z,8.35
2022-09-07T22:55:23.499Z,7.90
2022-09-07T22:57:50.059Z,7.22
2022-09-07T23:00:16.947Z,6.32
2022-09-07T23:02:44.301Z,6.78
2022-09-07T23:05:11.398Z,8.38
2022-09-07T23:07:38.142Z,7.30
2022-09-07T23:10:04.944Z,6.43
2022-09-07T23:12:31.588Z,6.65
2022-09-07T23:14:58.141Z,6.53
2022-09-07T23:17:24.749Z,5.80
2022-09-07T23:19:51.278Z,5.55
2022-09-07T23:22:18.193Z,5.15
2022-09-07T23:24:44.908Z,4.72
2022-09-07T23:27:11.445Z,5.35
2022-09-07T23:29:38.205Z,5.20
2022-09-07T23:32:04.969Z,5.78
2022-09-07T23:34:31.529Z,5.22
2022-09-07T23:36:58.096Z,5.25
2022-09-07T23:39:24.677Z,6.78
2022-09-07T23:41:51.242Z,6.70
2022-09-07T23:44:17.854Z,5.75
2022-09-07T23:46:44.577Z,7.28
2022-09-07T23:49:11.243Z,7.90
2022-09-07T23:51:37.823Z,7.57
2022-09-07T23:54:04.411Z,6.15
2022-09-07T23:56:32.683Z,7.22
2022-09-07T23:58:59.265Z,7.18
